sensor_id;sensor_type;location;lat;lon;timestamp;temperature;humidity
5556;DHT22;2801;50.972;7.856;2024-01-25T00:00:59;7.30;99.90
5556;DHT22;2801;50.972;7.856;2024-01-25T00:03:26;7.30;99.90
5556;DHT22;2801;50.972;7.856;2024-01-25T00:05:53;7.30;99.90
5556;DHT22;2801;50.972;7.856;2024-01-25T00:08:20;7.30;99.90
5556;DHT22;2801;50.972;7.856;2024-01-25T00:10:47;7.30;99.90
5556;DHT22;2801;50.972;7.856;2024-01-25T00:13:14;7.40;99.90
5556;DHT22;2801;50.972;7.856;2024-01-25T00:15:41;7.30;99.90
5556;DHT22;2801;50.972;7.856;2024-01-25T00:18:09;7.30;99.90
5556;DHT22;2801;50.972;7.856;2024-01-25T00:20:36;7.30;99.90
5556;DHT22;2801;50.972;7.856;2024-01-25T00:23:03;7.30;99.90
5556;DHT22;2801;50.972;7.856;2024-01-25T00:25:30;7.30;99.90
5556;DHT22;2801;50.972;7.856;2024-01-25T00:27:57;7.20;99.90
5556;DHT22;2801;50.972;7.856;2024-01-25T00:30:24;7.20;99.90
5556;DHT22;2801;50.972;7.856;2024-01-25T00:32:52;7.10;99.90
5556;DHT22;2801;50.972;7.856;2024-01-25T00:35:19;7.30;99.90
5556;DHT22;2801;50.972;7.856;2024-01-25T00:37:46;7.20;99.90
5556;DHT22;2801;50.972;7.856;2024-01-25T00:40:14;7.20;99.90
5556;DHT22;2801;50.972;7.856;2024-01-25T00:42:44;7.10;99.90
5556;DHT22;2801;50.972;7.856;2024-01-25T00:45:20;7.20;99.90
5556;DHT22;2801;50.972;7.856;2024-01-25T00:47:48;7.20;99.90
5556;DHT22;2801;50.972;7.856;2024-01-25T00:50:17;7.20;99.90
5556;DHT22;2801;50.972;7.856;2024-01-25T00:52:48;7.10;99.90
5556;DHT22;2801;50.972;7.856;2024-01-25T00:55:15;7.10;99.90
5556;DHT22;2801;50.972;7.856;2024-01-25T00:57:44;7.10;99.90
5556;DHT22;2801;50.972;7.856;2024-01-25T01:00:12;7.00;99.90
5556;DHT22;2801;50.972;7.856;2024-01-25T01:02:41;7.00;99.90
5556;DHT22;2801;50.972;7.856;2024-01-25T01:05:11;7.00;99.90
5556;DHT22;2801;50.972;7.856;2024-01-25T01:07:39;7.00;99.90
5556;DHT22;2801;50.972;7.856;2024-01-25T01:10:11;7.00;99.90
5556;DHT22;2801;50.972;7.856;2024-01-25T01:12:41;7.00;99.90
5556;DHT22;2801;50.972;7.856;2024-01-25T01:15:08;7.00;99.90
5556;DHT22;2801;50.972;7.856;2024-01-25T01:17:35;7.00;99.90
5556;DHT22;2801;50.972;7.856;2024-01-25T01:20:02;6.90;99.90
5556;DHT22;2801;50.972;7.856;2024-01-25T01:22:29;7.00;99.90
5556;DHT22;2801;50.972;7.856;2024-01-25T01:24:57;7.00;99.90
5556;DHT22;2801;50.972;7.856;2024-01-25T01:27:24;7.00;99.90
5556;DHT22;2801;50.972;7.856;2024-01-25T01:29:50;7.00;99.90
5556;DHT22;2801;50.972;7.856;2024-01-25T01:32:18;7.00;99.90
5556;DHT22;2801;50.972;7.856;2024-01-25T01:34:45;7.00;99.90
5556;DHT22;2801;50.972;7.856;2024-01-25T01:37:12;7.00;99.90
5556;DHT22;2801;50.972;7.856;2024-01-25T01:39:39;7.00;99.90
5556;DHT22;2801;50.972;7.856;2024-01-25T01:42:06;7.00;99.90
5556;DHT22;2801;50.972;7.856;2024-01-25T01:44:33;7.00;99.90
5556;DHT22;2801;50.972;7.856;2024-01-25T01:47:00;7.00;99.90
5556;DHT22;2801;50.972;7.856;2024-01-25T01:49:27;6.90;99.90
5556;DHT22;2801;50.972;7.856;2024-01-25T01:51:55;6.80;99.90
5556;DHT22;2801;50.972;7.856;2024-01-25T01:54:22;6.80;99.90
5556;DHT22;2801;50.972;7.856;2024-01-25T01:56:49;6.80;99.90
5556;DHT22;2801;50.972;7.856;2024-01-25T01:59:17;6.80;99.90
5556;DHT22;2801;50.972;7.856;2024-01-25T02:01:44;6.70;99.90
5556;DHT22;2801;50.972;7.856;2024-01-25T02:04:11;6.70;99.90
5556;DHT22;2801;50.972;7.856;2024-01-25T02:06:39;6.60;99.90
5556;DHT22;2801;50.972;7.856;2024-01-25T02:09:06;6.70;99.90
5556;DHT22;2801;50.972;7.856;2024-01-25T02:11:33;6.70;99.90
5556;DHT22;2801;50.972;7.856;2024-01-25T02:14:00;6.70;99.90
5556;DHT22;2801;50.972;7.856;2024-01-25T02:16:27;6.60;99.90
5556;DHT22;2801;50.972;7.856;2024-01-25T02:18:55;6.70;99.90
5556;DHT22;2801;50.972;7.856;2024-01-25T02:21:24;6.70;99.90
5556;DHT22;2801;50.972;7.856;2024-01-25T02:23:51;6.70;99.90
5556;DHT22;2801;50.972;7.856;2024-01-25T02:26:18;6.70;99.90
5556;DHT22;2801;50.972;7.856;2024-01-25T02:28:45;6.70;99.90
5556;DHT22;2801;50.972;7.856;2024-01-25T02:31:12;6.70;99.90
5556;DHT22;2801;50.972;7.856;2024-01-25T02:33:39;6.70;99.90
5556;DHT22;2801;50.972;7.856;2024-01-25T02:36:07;6.70;99.90
5556;DHT22;2801;50.972;7.856;2024-01-25T02:38:34;6.70;99.90
5556;DHT22;2801;50.972;7.856;2024-01-25T02:41:00;6.70;99.90
5556;DHT22;2801;50.972;7.856;2024-01-25T02:43:27;6.70;99.90
5556;DHT22;2801;50.972;7.856;2024-01-25T02:45:54;6.70;99.90
5556;DHT22;2801;50.972;7.856;2024-01-25T02:48:21;6.80;99.90
5556;DHT22;2801;50.972;7.856;2024-01-25T02:50:48;6.70;99.90
5556;DHT22;2801;50.972;7.856;2024-01-25T02:53:16;6.70;99.90
5556;DHT22;2801;50.972;7.856;2024-01-25T02:55:43;6.70;99.90
5556;DHT22;2801;50.972;7.856;2024-01-25T02:58:10;6.80;99.90
5556;DHT22;2801;50.972;7.856;2024-01-25T03:00:37;6.80;99.90
5556;DHT22;2801;50.972;7.856;2024-01-25T03:03:05;6.90;99.90
5556;DHT22;2801;50.972;7.856;2024-01-25T03:05:31;6.70;99.90
5556;DHT22;2801;50.972;7.856;2024-01-25T03:07:59;6.70;99.90
5556;DHT22;2801;50.972;7.856;2024-01-25T03:10:26;6.60;99.90
5556;DHT22;2801;50.972;7.856;2024-01-25T03:12:53;6.60;99.90
5556;DHT22;2801;50.972;7.856;2024-01-25T03:15:20;6.60;99.90
5556;DHT22;2801;50.972;7.856;2024-01-25T03:17:47;6.60;99.90
5556;DHT22;2801;50.972;7.856;2024-01-25T03:20:14;6.70;99.90
5556;DHT22;2801;50.972;7.856;2024-01-25T03:22:41;6.70;99.90
5556;DHT22;2801;50.972;7.856;2024-01-25T03:25:09;6.70;99.90
5556;DHT22;2801;50.972;7.856;2024-01-25T03:27:37;6.70;99.90
5556;DHT22;2801;50.972;7.856;2024-01-25T03:30:04;6.80;99.90
5556;DHT22;2801;50.972;7.856;2024-01-25T03:32:36;6.60;99.90
5556;DHT22;2801;50.972;7.856;2024-01-25T03:35:03;6.60;99.90
5556;DHT22;2801;50.972;7.856;2024-01-25T03:37:30;6.60;99.90
5556;DHT22;2801;50.972;7.856;2024-01-25T03:39:57;6.60;99.90
5556;DHT22;2801;50.972;7.856;2024-01-25T03:42:24;6.60;99.90
5556;DHT22;2801;50.972;7.856;2024-01-25T03:44:52;6.60;99.90
5556;DHT22;2801;50.972;7.856;2024-01-25T03:47:19;6.50;99.90
5556;DHT22;2801;50.972;7.856;2024-01-25T03:49:46;6.50;99.90
5556;DHT22;2801;50.972;7.856;2024-01-25T03:52:14;6.50;99.90
5556;DHT22;2801;50.972;7.856;2024-01-25T03:54:41;6.50;99.90
5556;DHT22;2801;50.972;7.856;2024-01-25T03:57:08;6.40;99.90
5556;DHT22;2801;50.972;7.856;2024-01-25T03:59:35;6.40;99.90
5556;DHT22;2801;50.972;7.856;2024-01-25T04:02:02;6.30;99.90
5556;DHT22;2801;50.972;7.856;2024-01-25T04:04:29;6.30;99.90
5556;DHT22;2801;50.972;7.856;2024-01-25T04:06:56;6.20;99.90
5556;DHT22;2801;50.972;7.856;2024-01-25T04:09:23;6.20;99.90
5556;DHT22;2801;50.972;7.856;2024-01-25T04:11:51;6.20;99.90
5556;DHT22;2801;50.972;7.856;2024-01-25T04:14:18;6.20;99.90
5556;DHT22;2801;50.972;7.856;2024-01-25T04:16:45;6.20;99.90
5556;DHT22;2801;50.972;7.856;2024-01-25T04:19:13;6.10;99.90
5556;DHT22;2801;50.972;7.856;2024-01-25T04:21:40;6.10;99.90
5556;DHT22;2801;50.972;7.856;2024-01-25T04:24:08;6.10;99.90
5556;DHT22;2801;50.972;7.856;2024-01-25T04:26:34;6.10;99.90
5556;DHT22;2801;50.972;7.856;2024-01-25T04:29:01;6.10;99.90
5556;DHT22;2801;50.972;7.856;2024-01-25T04:31:28;6.00;99.90
5556;DHT22;2801;50.972;7.856;2024-01-25T04:33:55;6.00;99.90
5556;DHT22;2801;50.972;7.856;2024-01-25T04:36:22;6.00;99.90
5556;DHT22;2801;50.972;7.856;2024-01-25T04:38:49;6.00;99.90
5556;DHT22;2801;50.972;7.856;2024-01-25T04:41:16;6.00;99.90
5556;DHT22;2801;50.972;7.856;2024-01-25T04:43:43;5.90;99.90
5556;DHT22;2801;50.972;7.856;2024-01-25T04:46:11;5.90;99.90
5556;DHT22;2801;50.972;7.856;2024-01-25T04:48:38;5.90;99.90
5556;DHT22;2801;50.972;7.856;2024-01-25T04:51:06;5.80;99.90
5556;DHT22;2801;50.972;7.856;2024-01-25T04:53:33;5.80;99.90
5556;DHT22;2801;50.972;7.856;2024-01-25T04:56:00;5.90;99.90
5556;DHT22;2801;50.972;7.856;2024-01-25T04:58:27;5.90;99.90
5556;DHT22;2801;50.972;7.856;2024-01-25T05:00:54;5.80;99.90
5556;DHT22;2801;50.972;7.856;2024-01-25T05:03:22;5.70;99.90
5556;DHT22;2801;50.972;7.856;2024-01-25T05:05:49;5.70;99.90
5556;DHT22;2801;50.972;7.856;2024-01-25T05:08:16;5.70;99.90
5556;DHT22;2801;50.972;7.856;2024-01-25T05:10:43;5.70;99.90
5556;DHT22;2801;50.972;7.856;2024-01-25T05:13:11;5.70;99.90
5556;DHT22;2801;50.972;7.856;2024-01-25T05:15:39;5.60;99.90
5556;DHT22;2801;50.972;7.856;2024-01-25T05:18:06;5.60;99.90
5556;DHT22;2801;50.972;7.856;2024-01-25T05:20:33;5.60;99.90
5556;DHT22;2801;50.972;7.856;2024-01-25T05:23:04;5.50;99.90
5556;DHT22;2801;50.972;7.856;2024-01-25T05:25:31;5.50;99.90
5556;DHT22;2801;50.972;7.856;2024-01-25T05:27:59;5.50;99.90
5556;DHT22;2801;50.972;7.856;2024-01-25T05:30:27;5.40;99.90
5556;DHT22;2801;50.972;7.856;2024-01-25T05:32:54;5.40;99.90
5556;DHT22;2801;50.972;7.856;2024-01-25T05:35:22;5.30;99.90
5556;DHT22;2801;50.972;7.856;2024-01-25T05:37:51;5.30;99.90
5556;DHT22;2801;50.972;7.856;2024-01-25T05:40:18;5.20;99.90
5556;DHT22;2801;50.972;7.856;2024-01-25T05:42:45;5.20;99.90
5556;DHT22;2801;50.972;7.856;2024-01-25T05:45:12;5.20;99.90
5556;DHT22;2801;50.972;7.856;2024-01-25T05:47:39;5.20;99.90
5556;DHT22;2801;50.972;7.856;2024-01-25T05:50:07;5.20;99.90
5556;DHT22;2801;50.972;7.856;2024-01-25T05:52:34;5.10;99.90
5556;DHT22;2801;50.972;7.856;2024-01-25T05:55:05;5.00;99.90
5556;DHT22;2801;50.972;7.856;2024-01-25T05:57:35;5.00;99.90
5556;DHT22;2801;50.972;7.856;2024-01-25T06:00:04;5.00;99.90
5556;DHT22;2801;50.972;7.856;2024-01-25T06:02:32;5.00;99.90
5556;DHT22;2801;50.972;7.856;2024-01-25T06:04:59;5.00;99.90
5556;DHT22;2801;50.972;7.856;2024-01-25T06:07:26;5.00;99.90
5556;DHT22;2801;50.972;7.856;2024-01-25T06:09:54;5.00;99.90
5556;DHT22;2801;50.972;7.856;2024-01-25T06:12:21;4.90;99.90
5556;DHT22;2801;50.972;7.856;2024-01-25T06:14:48;4.90;99.90
5556;DHT22;2801;50.972;7.856;2024-01-25T06:17:15;5.00;99.90
5556;DHT22;2801;50.972;7.856;2024-01-25T06:19:42;4.80;99.90
5556;DHT22;2801;50.972;7.856;2024-01-25T06:22:09;4.80;99.90
5556;DHT22;2801;50.972;7.856;2024-01-25T06:24:39;4.70;99.90
5556;DHT22;2801;50.972;7.856;2024-01-25T06:27:06;4.80;99.90
5556;DHT22;2801;50.972;7.856;2024-01-25T06:29:33;4.80;99.90
5556;DHT22;2801;50.972;7.856;2024-01-25T06:32:00;4.90;99.90
5556;DHT22;2801;50.972;7.856;2024-01-25T06:34:32;4.90;99.90
5556;DHT22;2801;50.972;7.856;2024-01-25T06:36:59;4.90;99.90
5556;DHT22;2801;50.972;7.856;2024-01-25T06:39:26;5.00;99.90
5556;DHT22;2801;50.972;7.856;2024-01-25T06:41:53;5.00;99.90
5556;DHT22;2801;50.972;7.856;2024-01-25T06:44:20;5.10;99.90
5556;DHT22;2801;50.972;7.856;2024-01-25T06:46:47;5.10;99.90
5556;DHT22;2801;50.972;7.856;2024-01-25T06:49:14;5.20;99.90
5556;DHT22;2801;50.972;7.856;2024-01-25T06:51:41;5.30;99.90
5556;DHT22;2801;50.972;7.856;2024-01-25T06:54:08;5.30;99.90
5556;DHT22;2801;50.972;7.856;2024-01-25T06:56:37;5.30;99.90
5556;DHT22;2801;50.972;7.856;2024-01-25T06:59:04;5.20;99.90
5556;DHT22;2801;50.972;7.856;2024-01-25T07:01:32;5.20;99.90
5556;DHT22;2801;50.972;7.856;2024-01-25T07:04:00;5.20;99.90
5556;DHT22;2801;50.972;7.856;2024-01-25T07:06:27;5.10;99.90
5556;DHT22;2801;50.972;7.856;2024-01-25T07:08:55;5.00;99.90
5556;DHT22;2801;50.972;7.856;2024-01-25T07:11:22;5.00;99.90
5556;DHT22;2801;50.972;7.856;2024-01-25T07:13:51;5.00;99.90
5556;DHT22;2801;50.972;7.856;2024-01-25T07:16:18;5.00;99.90
5556;DHT22;2801;50.972;7.856;2024-01-25T07:18:46;5.00;99.90
5556;DHT22;2801;50.972;7.856;2024-01-25T07:21:13;5.00;99.90
5556;DHT22;2801;50.972;7.856;2024-01-25T07:23:40;5.00;99.90
5556;DHT22;2801;50.972;7.856;2024-01-25T07:26:07;5.00;99.90
5556;DHT22;2801;50.972;7.856;2024-01-25T07:28:34;5.00;99.90
5556;DHT22;2801;50.972;7.856;2024-01-25T07:31:01;5.00;99.90
5556;DHT22;2801;50.972;7.856;2024-01-25T07:33:28;5.00;99.90
5556;DHT22;2801;50.972;7.856;2024-01-25T07:35:56;5.00;99.90
5556;DHT22;2801;50.972;7.856;2024-01-25T07:38:25;5.10;99.90
5556;DHT22;2801;50.972;7.856;2024-01-25T07:40:52;5.10;99.90
5556;DHT22;2801;50.972;7.856;2024-01-25T07:43:19;5.10;99.90
5556;DHT22;2801;50.972;7.856;2024-01-25T07:45:46;5.10;99.90
5556;DHT22;2801;50.972;7.856;2024-01-25T07:48:13;5.10;99.90
5556;DHT22;2801;50.972;7.856;2024-01-25T07:50:41;5.10;99.90
5556;DHT22;2801;50.972;7.856;2024-01-25T07:53:09;5.00;99.90
5556;DHT22;2801;50.972;7.856;2024-01-25T07:55:37;5.00;99.90
5556;DHT22;2801;50.972;7.856;2024-01-25T07:58:05;5.00;99.90
5556;DHT22;2801;50.972;7.856;2024-01-25T08:00:32;5.00;99.90
5556;DHT22;2801;50.972;7.856;2024-01-25T08:03:00;5.00;99.90
5556;DHT22;2801;50.972;7.856;2024-01-25T08:05:27;5.00;99.90
5556;DHT22;2801;50.972;7.856;2024-01-25T08:08:10;5.10;99.90
5556;DHT22;2801;50.972;7.856;2024-01-25T08:10:37;5.10;99.90
5556;DHT22;2801;50.972;7.856;2024-01-25T08:13:04;5.10;99.90
5556;DHT22;2801;50.972;7.856;2024-01-25T08:15:33;5.10;99.90
5556;DHT22;2801;50.972;7.856;2024-01-25T08:18:01;5.10;99.90
5556;DHT22;2801;50.972;7.856;2024-01-25T08:20:29;5.20;99.90
5556;DHT22;2801;50.972;7.856;2024-01-25T08:22:57;5.30;99.90
5556;DHT22;2801;50.972;7.856;2024-01-25T08:25:24;5.40;99.90
5556;DHT22;2801;50.972;7.856;2024-01-25T08:27:51;5.50;99.90
5556;DHT22;2801;50.972;7.856;2024-01-25T08:30:18;5.50;99.90
5556;DHT22;2801;50.972;7.856;2024-01-25T08:32:45;5.60;99.90
5556;DHT22;2801;50.972;7.856;2024-01-25T08:35:12;5.70;99.90
5556;DHT22;2801;50.972;7.856;2024-01-25T08:37:43;5.80;99.90
5556;DHT22;2801;50.972;7.856;2024-01-25T08:40:10;5.80;99.90
5556;DHT22;2801;50.972;7.856;2024-01-25T08:42:38;5.90;99.90
5556;DHT22;2801;50.972;7.856;2024-01-25T08:45:06;6.00;99.90
5556;DHT22;2801;50.972;7.856;2024-01-25T08:47:46;6.00;99.90
5556;DHT22;2801;50.972;7.856;2024-01-25T08:50:13;6.10;99.90
5556;DHT22;2801;50.972;7.856;2024-01-25T08:52:41;6.10;99.90
5556;DHT22;2801;50.972;7.856;2024-01-25T08:55:08;6.10;99.90
5556;DHT22;2801;50.972;7.856;2024-01-25T08:57:39;6.10;99.90
5556;DHT22;2801;50.972;7.856;2024-01-25T09:00:09;6.20;99.90
5556;DHT22;2801;50.972;7.856;2024-01-25T09:02:38;6.10;99.90
5556;DHT22;2801;50.972;7.856;2024-01-25T09:05:05;6.20;99.90
5556;DHT22;2801;50.972;7.856;2024-01-25T09:07:33;6.20;99.90
5556;DHT22;2801;50.972;7.856;2024-01-25T09:10:01;6.20;99.90
5556;DHT22;2801;50.972;7.856;2024-01-25T09:12:28;6.20;99.90
5556;DHT22;2801;50.972;7.856;2024-01-25T09:14:55;6.20;99.90
5556;DHT22;2801;50.972;7.856;2024-01-25T09:17:22;6.20;99.90
5556;DHT22;2801;50.972;7.856;2024-01-25T09:19:49;6.20;99.90
5556;DHT22;2801;50.972;7.856;2024-01-25T09:22:18;6.10;99.90
5556;DHT22;2801;50.972;7.856;2024-01-25T09:24:46;6.20;99.90
5556;DHT22;2801;50.972;7.856;2024-01-25T09:27:14;6.20;99.90
5556;DHT22;2801;50.972;7.856;2024-01-25T09:29:42;6.20;99.90
5556;DHT22;2801;50.972;7.856;2024-01-25T09:32:09;6.30;99.90
5556;DHT22;2801;50.972;7.856;2024-01-25T09:34:38;6.30;99.90
5556;DHT22;2801;50.972;7.856;2024-01-25T09:37:07;6.40;99.90
5556;DHT22;2801;50.972;7.856;2024-01-25T09:39:34;6.40;99.90
5556;DHT22;2801;50.972;7.856;2024-01-25T09:42:05;6.50;99.90
5556;DHT22;2801;50.972;7.856;2024-01-25T09:44:32;6.50;99.90
5556;DHT22;2801;50.972;7.856;2024-01-25T09:47:03;6.50;99.90
5556;DHT22;2801;50.972;7.856;2024-01-25T09:49:34;6.50;99.90
5556;DHT22;2801;50.972;7.856;2024-01-25T09:52:03;6.60;99.90
5556;DHT22;2801;50.972;7.856;2024-01-25T09:54:35;6.60;99.90
5556;DHT22;2801;50.972;7.856;2024-01-25T09:57:11;6.70;99.90
5556;DHT22;2801;50.972;7.856;2024-01-25T09:59:44;6.80;99.90
5556;DHT22;2801;50.972;7.856;2024-01-25T10:02:11;6.80;99.90
5556;DHT22;2801;50.972;7.856;2024-01-25T10:04:39;6.80;99.90
5556;DHT22;2801;50.972;7.856;2024-01-25T10:07:06;6.80;99.90
5556;DHT22;2801;50.972;7.856;2024-01-25T10:09:41;6.80;99.90
5556;DHT22;2801;50.972;7.856;2024-01-25T10:12:09;6.80;99.90
5556;DHT22;2801;50.972;7.856;2024-01-25T10:14:45;6.80;99.90
5556;DHT22;2801;50.972;7.856;2024-01-25T10:17:12;6.90;99.90
5556;DHT22;2801;50.972;7.856;2024-01-25T10:19:43;7.00;99.90
5556;DHT22;2801;50.972;7.856;2024-01-25T10:22:12;7.20;99.90
5556;DHT22;2801;50.972;7.856;2024-01-25T10:24:42;7.20;99.90
5556;DHT22;2801;50.972;7.856;2024-01-25T10:27:10;7.20;99.90
5556;DHT22;2801;50.972;7.856;2024-01-25T10:29:39;7.20;99.90
5556;DHT22;2801;50.972;7.856;2024-01-25T10:32:08;7.30;99.90
5556;DHT22;2801;50.972;7.856;2024-01-25T10:34:36;7.40;99.90
5556;DHT22;2801;50.972;7.856;2024-01-25T10:37:07;7.40;99.90
5556;DHT22;2801;50.972;7.856;2024-01-25T10:39:35;7.50;99.90
5556;DHT22;2801;50.972;7.856;2024-01-25T10:42:02;7.40;99.90
5556;DHT22;2801;50.972;7.856;2024-01-25T10:44:30;7.40;99.90
5556;DHT22;2801;50.972;7.856;2024-01-25T10:46:58;7.50;99.90
5556;DHT22;2801;50.972;7.856;2024-01-25T10:49:26;7.60;99.90
5556;DHT22;2801;50.972;7.856;2024-01-25T10:51:54;7.50;99.90
5556;DHT22;2801;50.972;7.856;2024-01-25T10:54:22;7.50;99.90
5556;DHT22;2801;50.972;7.856;2024-01-25T10:56:49;7.50;99.90
5556;DHT22;2801;50.972;7.856;2024-01-25T10:59:17;7.50;99.90
5556;DHT22;2801;50.972;7.856;2024-01-25T11:01:45;7.50;99.90
5556;DHT22;2801;50.972;7.856;2024-01-25T11:04:15;7.40;99.90
5556;DHT22;2801;50.972;7.856;2024-01-25T11:06:46;7.50;99.90
5556;DHT22;2801;50.972;7.856;2024-01-25T11:09:21;7.50;99.90
5556;DHT22;2801;50.972;7.856;2024-01-25T11:11:49;7.50;99.90
5556;DHT22;2801;50.972;7.856;2024-01-25T11:14:19;7.50;99.90
5556;DHT22;2801;50.972;7.856;2024-01-25T11:16:46;7.50;99.90
5556;DHT22;2801;50.972;7.856;2024-01-25T11:19:18;7.60;99.90
5556;DHT22;2801;50.972;7.856;2024-01-25T11:21:49;7.60;99.90
5556;DHT22;2801;50.972;7.856;2024-01-25T11:24:24;7.70;99.90
5556;DHT22;2801;50.972;7.856;2024-01-25T11:26:55;7.80;99.90
5556;DHT22;2801;50.972;7.856;2024-01-25T11:29:22;7.80;99.90
5556;DHT22;2801;50.972;7.856;2024-01-25T11:31:52;7.80;99.90
5556;DHT22;2801;50.972;7.856;2024-01-25T11:34:19;7.90;99.90
5556;DHT22;2801;50.972;7.856;2024-01-25T11:36:47;8.00;99.90
5556;DHT22;2801;50.972;7.856;2024-01-25T11:39:16;8.00;99.90
5556;DHT22;2801;50.972;7.856;2024-01-25T11:41:44;8.00;99.90
5556;DHT22;2801;50.972;7.856;2024-01-25T11:44:12;8.10;99.90
5556;DHT22;2801;50.972;7.856;2024-01-25T11:46:40;8.10;99.90
5556;DHT22;2801;50.972;7.856;2024-01-25T11:49:08;8.00;99.90
5556;DHT22;2801;50.972;7.856;2024-01-25T11:51:36;7.90;99.90
5556;DHT22;2801;50.972;7.856;2024-01-25T11:54:03;7.90;99.90
5556;DHT22;2801;50.972;7.856;2024-01-25T11:56:39;7.90;99.90
5556;DHT22;2801;50.972;7.856;2024-01-25T11:59:10;7.90;99.90
5556;DHT22;2801;50.972;7.856;2024-01-25T12:01:37;7.90;99.90
5556;DHT22;2801;50.972;7.856;2024-01-25T12:04:06;8.00;99.90
5556;DHT22;2801;50.972;7.856;2024-01-25T12:06:35;8.00;99.90
5556;DHT22;2801;50.972;7.856;2024-01-25T12:09:10;8.10;99.90
5556;DHT22;2801;50.972;7.856;2024-01-25T12:11:39;8.10;99.90
5556;DHT22;2801;50.972;7.856;2024-01-25T12:14:09;8.20;99.90
5556;DHT22;2801;50.972;7.856;2024-01-25T12:16:36;8.40;99.90
5556;DHT22;2801;50.972;7.856;2024-01-25T12:19:05;8.50;99.90
5556;DHT22;2801;50.972;7.856;2024-01-25T12:21:34;8.70;99.90
5556;DHT22;2801;50.972;7.856;2024-01-25T12:24:02;8.90;99.90
5556;DHT22;2801;50.972;7.856;2024-01-25T12:26:36;8.90;99.90
5556;DHT22;2801;50.972;7.856;2024-01-25T12:29:04;8.90;99.90
5556;DHT22;2801;50.972;7.856;2024-01-25T12:31:32;9.20;99.90
5556;DHT22;2801;50.972;7.856;2024-01-25T12:34:00;9.20;99.90
5556;DHT22;2801;50.972;7.856;2024-01-25T12:36:28;9.30;99.90
5556;DHT22;2801;50.972;7.856;2024-01-25T12:38:55;9.30;99.90
5556;DHT22;2801;50.972;7.856;2024-01-25T12:41:22;9.30;99.90
5556;DHT22;2801;50.972;7.856;2024-01-25T12:43:50;9.30;99.90
5556;DHT22;2801;50.972;7.856;2024-01-25T12:46:19;9.20;99.90
5556;DHT22;2801;50.972;7.856;2024-01-25T12:48:54;9.10;99.90
5556;DHT22;2801;50.972;7.856;2024-01-25T12:51:24;8.90;99.90
5556;DHT22;2801;50.972;7.856;2024-01-25T12:53:52;8.90;99.90
5556;DHT22;2801;50.972;7.856;2024-01-25T12:56:19;8.80;99.90
5556;DHT22;2801;50.972;7.856;2024-01-25T12:58:46;8.70;99.90
5556;DHT22;2801;50.972;7.856;2024-01-25T13:01:14;8.60;99.90
5556;DHT22;2801;50.972;7.856;2024-01-25T13:03:43;8.60;99.90
5556;DHT22;2801;50.972;7.856;2024-01-25T13:06:13;8.50;99.90
5556;DHT22;2801;50.972;7.856;2024-01-25T13:08:41;8.50;99.90
5556;DHT22;2801;50.972;7.856;2024-01-25T13:11:08;8.40;99.90
5556;DHT22;2801;50.972;7.856;2024-01-25T13:13:35;8.40;99.90
5556;DHT22;2801;50.972;7.856;2024-01-25T13:16:02;8.40;99.90
5556;DHT22;2801;50.972;7.856;2024-01-25T13:18:29;8.40;99.90
5556;DHT22;2801;50.972;7.856;2024-01-25T13:20:57;8.40;99.90
5556;DHT22;2801;50.972;7.856;2024-01-25T13:23:23;8.50;99.90
5556;DHT22;2801;50.972;7.856;2024-01-25T13:25:50;8.50;99.90
5556;DHT22;2801;50.972;7.856;2024-01-25T13:28:17;8.50;99.90
5556;DHT22;2801;50.972;7.856;2024-01-25T13:30:48;8.40;99.90
5556;DHT22;2801;50.972;7.856;2024-01-25T13:33:15;8.40;99.90
5556;DHT22;2801;50.972;7.856;2024-01-25T13:35:43;8.50;99.90
5556;DHT22;2801;50.972;7.856;2024-01-25T13:38:10;8.50;99.90
5556;DHT22;2801;50.972;7.856;2024-01-25T13:40:41;8.60;99.90
5556;DHT22;2801;50.972;7.856;2024-01-25T13:43:08;8.50;99.90
5556;DHT22;2801;50.972;7.856;2024-01-25T13:45:35;8.50;99.90
5556;DHT22;2801;50.972;7.856;2024-01-25T13:48:03;8.40;99.90
5556;DHT22;2801;50.972;7.856;2024-01-25T13:50:30;8.40;99.90
5556;DHT22;2801;50.972;7.856;2024-01-25T13:52:57;8.40;99.90
5556;DHT22;2801;50.972;7.856;2024-01-25T13:55:24;8.20;99.90
5556;DHT22;2801;50.972;7.856;2024-01-25T13:57:51;8.20;99.90
5556;DHT22;2801;50.972;7.856;2024-01-25T14:00:18;8.20;99.90
5556;DHT22;2801;50.972;7.856;2024-01-25T14:02:45;8.20;99.90
5556;DHT22;2801;50.972;7.856;2024-01-25T14:05:13;8.20;99.90
5556;DHT22;2801;50.972;7.856;2024-01-25T14:07:40;8.20;99.90
5556;DHT22;2801;50.972;7.856;2024-01-25T14:10:09;8.20;99.90
5556;DHT22;2801;50.972;7.856;2024-01-25T14:12:37;8.20;99.90
5556;DHT22;2801;50.972;7.856;2024-01-25T14:15:04;8.30;99.90
5556;DHT22;2801;50.972;7.856;2024-01-25T14:17:32;8.30;99.90
5556;DHT22;2801;50.972;7.856;2024-01-25T14:19:59;8.30;99.90
5556;DHT22;2801;50.972;7.856;2024-01-25T14:22:28;8.30;99.90
5556;DHT22;2801;50.972;7.856;2024-01-25T14:25:00;8.20;99.90
5556;DHT22;2801;50.972;7.856;2024-01-25T14:27:27;8.30;99.90
5556;DHT22;2801;50.972;7.856;2024-01-25T14:29:55;8.30;99.90
5556;DHT22;2801;50.972;7.856;2024-01-25T14:32:22;8.30;99.90
5556;DHT22;2801;50.972;7.856;2024-01-25T14:34:49;8.20;99.90
5556;DHT22;2801;50.972;7.856;2024-01-25T14:37:18;8.10;99.90
5556;DHT22;2801;50.972;7.856;2024-01-25T14:39:45;8.00;99.90
5556;DHT22;2801;50.972;7.856;2024-01-25T14:42:32;8.10;99.90
5556;DHT22;2801;50.972;7.856;2024-01-25T14:44:59;7.90;99.90
5556;DHT22;2801;50.972;7.856;2024-01-25T14:47:26;7.90;99.90
5556;DHT22;2801;50.972;7.856;2024-01-25T14:49:53;7.80;99.90
5556;DHT22;2801;50.972;7.856;2024-01-25T14:52:20;7.80;99.90
5556;DHT22;2801;50.972;7.856;2024-01-25T14:54:47;7.70;99.90
5556;DHT22;2801;50.972;7.856;2024-01-25T14:57:14;7.50;99.90
5556;DHT22;2801;50.972;7.856;2024-01-25T14:59:41;7.50;99.90
5556;DHT22;2801;50.972;7.856;2024-01-25T15:02:09;7.50;99.90
5556;DHT22;2801;50.972;7.856;2024-01-25T15:04:36;7.50;99.90
5556;DHT22;2801;50.972;7.856;2024-01-25T15:07:04;7.40;99.90
5556;DHT22;2801;50.972;7.856;2024-01-25T15:09:31;7.40;99.90
5556;DHT22;2801;50.972;7.856;2024-01-25T15:11:59;7.30;99.90
5556;DHT22;2801;50.972;7.856;2024-01-25T15:14:26;7.10;99.90
5556;DHT22;2801;50.972;7.856;2024-01-25T15:16:53;7.00;99.90
5556;DHT22;2801;50.972;7.856;2024-01-25T15:19:21;6.90;99.90
5556;DHT22;2801;50.972;7.856;2024-01-25T15:21:48;6.80;99.90
5556;DHT22;2801;50.972;7.856;2024-01-25T15:24:15;6.80;99.90
5556;DHT22;2801;50.972;7.856;2024-01-25T15:26:43;6.80;99.90
5556;DHT22;2801;50.972;7.856;2024-01-25T15:29:10;6.70;99.90
5556;DHT22;2801;50.972;7.856;2024-01-25T15:31:37;6.60;99.90
5556;DHT22;2801;50.972;7.856;2024-01-25T15:34:04;6.50;99.90
5556;DHT22;2801;50.972;7.856;2024-01-25T15:36:31;6.40;99.90
5556;DHT22;2801;50.972;7.856;2024-01-25T15:38:58;6.30;99.90
5556;DHT22;2801;50.972;7.856;2024-01-25T15:41:26;6.20;99.90
5556;DHT22;2801;50.972;7.856;2024-01-25T15:43:56;6.10;99.90
5556;DHT22;2801;50.972;7.856;2024-01-25T15:46:24;6.10;99.90
5556;DHT22;2801;50.972;7.856;2024-01-25T15:48:51;6.10;99.90
5556;DHT22;2801;50.972;7.856;2024-01-25T15:51:21;6.00;99.90
5556;DHT22;2801;50.972;7.856;2024-01-25T15:53:50;6.00;99.90
5556;DHT22;2801;50.972;7.856;2024-01-25T15:56:17;5.80;99.90
5556;DHT22;2801;50.972;7.856;2024-01-25T15:58:44;5.70;99.90
5556;DHT22;2801;50.972;7.856;2024-01-25T16:01:11;5.60;99.90
5556;DHT22;2801;50.972;7.856;2024-01-25T16:03:38;5.60;99.90
5556;DHT22;2801;50.972;7.856;2024-01-25T16:06:06;5.60;99.90
5556;DHT22;2801;50.972;7.856;2024-01-25T16:08:33;5.50;99.90
5556;DHT22;2801;50.972;7.856;2024-01-25T16:11:04;5.50;99.90
5556;DHT22;2801;50.972;7.856;2024-01-25T16:13:33;5.40;99.90
5556;DHT22;2801;50.972;7.856;2024-01-25T16:16:00;5.40;99.90
5556;DHT22;2801;50.972;7.856;2024-01-25T16:18:28;5.40;99.90
5556;DHT22;2801;50.972;7.856;2024-01-25T16:20:55;5.40;99.90